createdAt,value
2018-11-26T00:00:31.348Z,12.73
2018-11-26T00:05:25.809Z,12.20
2018-11-26T00:10:36.937Z,13.27
2018-11-26T00:15:31.433Z,17.13
2018-11-26T00:20:25.899Z,12.80
2018-11-26T00:25:20.357Z,15.67
2018-11-26T00:30:14.813Z,14.43
2018-11-26T00:35:09.282Z,13.77
2018-11-26T00:40:03.733Z,13.80
2018-11-26T00:44:58.160Z,12.53
2018-11-26T00:49:52.633Z,13.57
2018-11-26T00:54:47.069Z,13.20
2018-11-26T00:59:41.533Z,14.13
2018-11-26T01:04:35.966Z,14.00
2018-11-26T01:09:30.469Z,14.10
2018-11-26T01:14:24.900Z,13.13
2018-11-26T01:19:19.349Z,15.07
2018-11-26T01:24:13.741Z,13.40
2018-11-26T01:29:08.213Z,12.87
2018-11-26T01:34:02.642Z,15.00
2018-11-26T01:38:57.052Z,14.50
2018-11-26T01:43:51.489Z,14.13
2018-11-26T01:48:45.901Z,14.27
2018-11-26T01:53:40.357Z,14.57
2018-11-26T01:58:34.768Z,14.10
2018-11-26T02:03:29.265Z,15.30
2018-11-26T02:08:23.732Z,13.93
2018-11-26T02:13:18.170Z,17.03
2018-11-26T02:18:12.822Z,15.53
2018-11-26T02:23:07.536Z,15.30
2018-11-26T02:28:02.005Z,12.77
2018-11-26T02:32:56.478Z,12.27
2018-11-26T02:37:53.253Z,14.17
2018-11-26T02:42:48.301Z,12.37
2018-11-26T02:47:42.710Z,11.53
2018-11-26T02:52:37.180Z,12.43
2018-11-26T02:57:31.591Z,10.80
2018-11-26T03:02:26.041Z,11.60
2018-11-26T03:07:20.471Z,11.43
2018-11-26T03:12:14.905Z,13.57
2018-11-26T03:17:09.423Z,11.70
2018-11-26T03:22:03.962Z,11.37
2018-11-26T03:26:58.464Z,11.50
2018-11-26T03:31:52.927Z,11.47
2018-11-26T03:36:47.377Z,10.80
2018-11-26T03:41:41.839Z,12.67
2018-11-26T03:46:36.280Z,12.73
2018-11-26T03:51:30.721Z,12.63
2018-11-26T03:56:25.124Z,13.07
2018-11-26T04:01:19.602Z,12.27
2018-11-26T04:06:14.041Z,13.57
2018-11-26T04:11:08.452Z,11.83
2018-11-26T04:16:02.919Z,10.43
2018-11-26T04:20:57.334Z,11.13
2018-11-26T04:25:51.841Z,13.00
2018-11-26T04:30:46.253Z,11.43
2018-11-26T04:35:40.692Z,11.40
2018-11-26T04:40:35.129Z,13.23
2018-11-26T04:45:29.597Z,11.70
2018-11-26T04:50:24.066Z,14.47
2018-11-26T04:55:18.525Z,12.17
2018-11-26T05:00:14.709Z,13.70
2018-11-26T05:05:10.674Z,13.10
2018-11-26T05:10:06.946Z,13.40
2018-11-26T05:15:01.361Z,13.97
2018-11-26T05:19:55.833Z,13.67
2018-11-26T05:24:50.387Z,14.30
2018-11-26T05:29:44.823Z,15.33
2018-11-26T05:34:39.317Z,13.87
2018-11-26T05:39:33.830Z,14.67
2018-11-26T05:44:28.405Z,14.23
2018-11-26T05:49:22.988Z,15.93
2018-11-26T05:54:17.486Z,14.57
2018-11-26T05:59:12.006Z,15.20
2018-11-26T06:04:07.066Z,13.40
2018-11-26T06:09:01.669Z,16.23
2018-11-26T06:19:20.575Z,20.87
2018-11-26T06:24:16.358Z,16.00
2018-11-26T06:29:10.961Z,17.17
2018-11-26T06:34:06.012Z,14.57
2018-11-26T06:39:00.513Z,18.70
2018-11-26T06:43:55.222Z,17.50
2018-11-26T06:48:49.747Z,16.07
2018-11-26T06:53:44.290Z,16.53
2018-11-26T06:58:38.777Z,18.37
2018-11-26T07:03:36.511Z,27.03
2018-11-26T07:08:31.013Z,17.60
2018-11-26T07:13:25.598Z,17.93
2018-11-26T07:18:20.836Z,16.40
2018-11-26T07:23:15.420Z,17.57
2018-11-26T07:28:11.324Z,16.17
2018-11-26T07:33:06.126Z,15.90
2018-11-26T07:38:00.786Z,15.70
2018-11-26T07:43:01.376Z,17.23
2018-11-26T07:47:55.889Z,18.33
2018-11-26T07:52:52.269Z,17.80
2018-11-26T07:57:46.693Z,16.47
2018-11-26T08:02:42.337Z,18.73
2018-11-26T08:07:55.787Z,16.13
2018-11-26T08:13:10.344Z,18.60
2018-11-26T08:18:18.604Z,16.90
2018-11-26T08:23:13.490Z,15.97
2018-11-26T08:28:08.143Z,15.70
2018-11-26T08:33:03.376Z,18.30
2018-11-26T08:38:03.303Z,19.27
2018-11-26T08:43:02.890Z,18.47
2018-11-26T08:48:04.251Z,15.40
2018-11-26T08:52:58.801Z,16.93
2018-11-26T08:57:53.518Z,14.93
2018-11-26T09:03:00.322Z,15.90
2018-11-26T09:07:55.070Z,16.33
2018-11-26T09:12:50.280Z,14.67
2018-11-26T09:17:45.261Z,13.97
2018-11-26T09:22:44.746Z,15.73
2018-11-26T09:27:39.399Z,15.87
2018-11-26T09:32:38.873Z,16.53
2018-11-26T09:37:34.113Z,15.07
2018-11-26T09:42:31.056Z,14.47
2018-11-26T09:47:25.563Z,10.00
2018-11-26T09:52:20.139Z,10.97
2018-11-26T09:57:14.832Z,11.97
2018-11-26T10:02:09.458Z,10.23
2018-11-26T10:07:04.255Z,8.17
2018-11-26T10:11:59.200Z,8.50
2018-11-26T10:16:53.936Z,9.13
2018-11-26T10:21:48.824Z,7.93
2018-11-26T10:26:54.315Z,8.53
2018-11-26T10:31:49.629Z,9.33
2018-11-26T10:36:44.607Z,8.67
2018-11-26T10:41:43.746Z,10.93
2018-11-26T10:46:38.301Z,8.77
2018-11-26T10:51:34.615Z,9.70
2018-11-26T10:56:29.777Z,9.63
2018-11-26T11:01:29.903Z,10.40
2018-11-26T11:06:24.681Z,9.33
2018-11-26T11:11:23.478Z,8.20
2018-11-26T11:16:16.189Z,7.77
2018-11-26T11:21:11.060Z,8.00
2018-11-26T11:26:06.093Z,7.33
2018-11-26T11:31:04.610Z,6.83
2018-11-26T11:36:03.257Z,6.60
2018-11-26T11:41:03.352Z,7.60
2018-11-26T11:46:01.887Z,7.33
2018-11-26T11:51:05.460Z,6.80
2018-11-26T11:56:23.661Z,7.07
2018-11-26T12:01:23.165Z,5.70
2018-11-26T12:06:26.596Z,6.63
2018-11-26T12:11:24.970Z,6.67
2018-11-26T12:16:25.346Z,9.17
2018-11-26T12:21:23.508Z,12.87
2018-11-26T12:26:18.294Z,7.67
2018-11-26T12:31:13.296Z,11.63
2018-11-26T12:36:12.165Z,9.77
2018-11-26T12:41:10.896Z,10.93
2018-11-26T12:46:10.119Z,5.87
2018-11-26T12:51:11.721Z,14.17
2018-11-26T12:56:10.560Z,9.67
2018-11-26T13:01:11.221Z,16.67
2018-11-26T13:06:13.485Z,7.47
2018-11-26T13:11:08.502Z,6.57
2018-11-26T13:16:03.579Z,6.20
2018-11-26T13:21:06.773Z,7.37
2018-11-26T13:26:02.180Z,7.27
2018-11-26T13:30:57.494Z,9.63
2018-11-26T13:35:57.512Z,8.77
2018-11-26T13:40:52.471Z,8.53
2018-11-26T13:45:49.643Z,8.33
2018-11-26T13:50:51.577Z,10.00
2018-11-26T13:55:46.431Z,9.10
2018-11-26T14:00:45.619Z,10.30
2018-11-26T14:05:40.579Z,9.30
2018-11-26T14:10:35.491Z,9.53
2018-11-26T14:15:30.764Z,12.77
2018-11-26T14:20:25.671Z,13.00
2018-11-26T14:25:20.415Z,16.13
2018-11-26T14:30:33.423Z,13.90
2018-11-26T14:35:29.921Z,14.63
2018-11-26T14:40:30.633Z,16.07
2018-11-26T14:45:25.599Z,17.50
2018-11-26T14:50:20.729Z,17.10
2018-11-26T14:55:23.980Z,17.70
2018-11-26T15:00:19.706Z,17.73
2018-11-26T15:05:15.140Z,17.50
2018-11-26T15:10:13.101Z,16.83
2018-11-26T15:15:20.019Z,15.93
2018-11-26T15:20:19.546Z,17.80
2018-11-26T15:25:19.523Z,17.53
2018-11-26T15:30:17.489Z,16.27
2018-11-26T15:35:15.898Z,16.73
2018-11-26T15:40:11.874Z,17.23
2018-11-26T15:45:12.167Z,15.17
2018-11-26T15:50:07.360Z,17.10
2018-11-26T15:55:02.123Z,18.10
2018-11-26T15:59:57.038Z,15.80
2018-11-26T16:04:51.956Z,17.57
2018-11-26T16:09:46.606Z,16.30
2018-11-26T16:14:41.178Z,15.93
2018-11-26T16:19:35.937Z,14.37
2018-11-26T16:24:30.644Z,16.20
2018-11-26T16:29:25.384Z,17.20
2018-11-26T16:34:21.017Z,16.87
2018-11-26T16:39:15.830Z,15.87
2018-11-26T16:44:10.637Z,15.40
2018-11-26T16:49:07.344Z,16.80
2018-11-26T16:54:02.008Z,16.70
2018-11-26T16:59:00.913Z,14.17
2018-11-26T17:03:59.280Z,12.67
2018-11-26T17:08:54.319Z,19.23
2018-11-26T17:13:49.138Z,15.20
2018-11-26T17:18:44.146Z,15.97
2018-11-26T17:23:41.508Z,15.67
2018-11-26T17:28:36.089Z,16.50
2018-11-26T17:33:30.866Z,18.03
2018-11-26T17:38:25.373Z,20.63
2018-11-26T17:43:19.887Z,21.57
2018-11-26T17:48:14.634Z,18.57
2018-11-26T17:53:15.437Z,18.60
2018-11-26T17:58:10.059Z,24.27
2018-11-26T18:03:04.871Z,26.50
2018-11-26T18:08:08.483Z,30.73
2018-11-26T18:13:03.067Z,30.73
2018-11-26T18:17:57.686Z,27.70
2018-11-26T18:22:54.033Z,28.73
2018-11-26T18:27:55.071Z,27.83
2018-11-26T18:32:49.599Z,28.93
2018-11-26T18:37:44.180Z,27.07
2018-11-26T18:42:38.863Z,28.33
2018-11-26T18:47:33.547Z,25.50
2018-11-26T18:52:28.080Z,24.90
2018-11-26T18:57:22.582Z,24.87
2018-11-26T19:02:17.231Z,23.37
2018-11-26T19:07:12.388Z,21.70
2018-11-26T19:12:07.433Z,21.70
2018-11-26T19:17:01.903Z,23.40
2018-11-26T19:21:56.660Z,20.37
2018-11-26T19:26:51.167Z,18.50
2018-11-26T19:31:45.643Z,22.07
2018-11-26T19:36:40.315Z,22.87
2018-11-26T19:41:34.769Z,21.40
2018-11-26T19:46:29.330Z,19.57
2018-11-26T19:51:23.855Z,19.37
2018-11-26T19:56:18.398Z,19.57
2018-11-26T20:01:12.946Z,21.13
2018-11-26T20:06:15.585Z,20.67
2018-11-26T20:11:10.560Z,18.13
2018-11-26T20:16:07.379Z,16.07
2018-11-26T20:21:01.882Z,18.13
2018-11-26T20:25:56.351Z,21.60
2018-11-26T20:30:50.866Z,22.40
2018-11-26T20:35:45.332Z,19.03
2018-11-26T20:40:39.863Z,18.87
2018-11-26T20:45:34.355Z,23.63
2018-11-26T20:50:30.146Z,15.27
2018-11-26T20:55:26.229Z,14.33
2018-11-26T21:00:22.908Z,17.33
2018-11-26T21:05:17.619Z,13.97
2018-11-26T21:10:13.991Z,15.63
2018-11-26T21:15:12.815Z,15.80
2018-11-26T21:20:15.612Z,16.03
2018-11-26T21:25:14.363Z,18.87
2018-11-26T21:30:14.891Z,15.00
2018-11-26T21:35:12.099Z,17.83
2018-11-26T21:40:09.584Z,18.23
2018-11-26T21:45:04.263Z,17.07
2018-11-26T21:49:58.786Z,16.07
2018-11-26T21:54:53.343Z,15.70
2018-11-26T21:59:47.878Z,16.03
2018-11-26T22:04:43.943Z,16.60
2018-11-26T22:09:38.552Z,15.47
2018-11-26T22:14:33.167Z,14.43
2018-11-26T22:19:27.697Z,13.37
2018-11-26T22:24:22.231Z,13.20
2018-11-26T22:29:16.820Z,12.73
2018-11-26T22:34:11.347Z,10.03
2018-11-26T22:39:10.194Z,8.73
2018-11-26T22:44:04.802Z,8.53
2018-11-26T22:48:59.292Z,8.23
2018-11-26T22:53:53.769Z,6.90
2018-11-26T22:58:48.261Z,8.23
2018-11-26T23:03:42.746Z,7.70
2018-11-26T23:08:37.182Z,7.37
2018-11-26T23:13:31.642Z,6.53
2018-11-26T23:18:26.266Z,5.80
2018-11-26T23:23:20.835Z,6.13
2018-11-26T23:28:15.299Z,7.37
2018-11-26T23:33:09.829Z,5.27
2018-11-26T23:38:04.319Z,5.57
2018-11-26T23:42:58.809Z,5.80
2018-11-26T23:47:53.297Z,6.37
2018-11-26T23:52:48.036Z,5.40
2018-11-26T23:57:42.484Z,5.90
